Sunday, January 21, 2018, 3:43 PM EST
Back to Local

KLWM, Lawrence Municipal Airport

Location: North Andover, MA, United States Lat: 42.717
Local Time: 3:43 PM EST (20:43 GMT) Lon: -71.133
Time Zone: US/Eastern Elev: 147 ft

Show me the last for .
Show Coded

Time T Td Feel RH Dir Speed Gust Alt SLP Vis Weather Sky Remarks
2018-01-21 14:54 50 28 48 42 280° 6 - 30.12 30.12 10 CLR None
2018-01-21 13:54 50 29 48 43 310° 6 - 30.11 30.11 10 CLR None
2018-01-21 12:54 50 29 47 43 290° 7 - 30.11 30.11 10 CLR 6-hr Min Temp (1pm): 37.0°F
6-hr Max Temp (1pm): 50.0°F
2018-01-21 11:54 49 30 45 47 320° 8 - 30.13 30.13 10 CLR None
2018-01-21 10:54 47 30 43 51 280° 8 - 30.16 30.16 10 CLR None
2018-01-21 09:54 45 30 41 55 290° 7 - 30.14 30.14 10 CLR None
2018-01-21 08:54 41 30 - 64 - Calm - 30.13 30.13 10 CLR None
2018-01-21 07:54 39 29 35 66 210° 6 - 30.11 30.11 10 CLR None
2018-01-21 06:54 38 29 34 69 230° 5 - 30.09 30.09 10 CLR 6-hr Min Temp (7am): 33.1°F
6-hr Max Temp (7am): 39.9°F
2018-01-21 05:54 37 29 34 72 200° 3 - 30.08 30.08 10 CLR None
2018-01-21 04:54 37 28 - 69 - Calm - 30.04 30.04 10 CLR None
2018-01-21 03:54 39 28 33 64 250° 8 - 30.01 30.01 10 CLR None
2018-01-21 02:54 39 28 33 64 260° 8 - 30.00 30.01 10 CLR None
2018-01-21 01:54 37 27 32 66 220° 6 - 29.97 29.97 10 CLR None
2018-01-21 00:54 37 27 32 66 220° 6 - 29.95 29.95 10 CLR 6-hr Min Temp (1am): 37.0°F
6-hr Max Temp (1am): 45.0°F
2018-01-20 23:54 40 28 34 62 240° 8 - 29.96 29.96 10 CLR 24-hr Min Temp (12am): 30.9°F
24-hr Max Temp (12am): 48.9°F
2018-01-20 22:54 38 27 32 64 230° 8 - 29.95 29.95 10 CLR None
2018-01-20 21:54 38 27 33 64 210° 6 - 29.94 29.94 10 CLR None
2018-01-20 20:54 39 27 35 61 240° 6 - 29.92 29.92 10 CLR None
2018-01-20 19:54 39 27 35 61 230° 6 - 29.90 29.90 10 CLR None
2018-01-20 18:54 45 27 41 48 250° 7 - 29.85 29.85 10 CLR 6-hr Min Temp (7pm): 44.1°F
6-hr Max Temp (7pm): 48.9°F
2018-01-20 17:54 45 28 40 51 240° 9 - 29.81 29.81 10 CLR None
2018-01-20 16:54 46 28 41 49 230° 12 - 29.77 29.77 10 CLR None
2018-01-20 15:54 48 28 43 45 250° 13 - 29.73 29.73 10 CLR None

Support USWX by starting your Amazon purchase here.